Time;durP1;ratioP1;P1;durP2;ratioP2;P2;SDS_P1;SDS_P2;PMS_P1;PMS_P2;Temp;Humidity;BMP_temperature;BMP_pressure;BME280_temperature;BME280_humidity;BME280_pressure;Samples;Min_cycle;Max_cycle;Signal;HPM_P1;HPM_P2
2022/11/21 00:00:32;;;;;;;1.50;0.90;;;;;;;;;;6211098;28;20885;-81
2022/11/21 00:03:36;;;;;;;4.53;1.83;;;;;;;;;;6195517;28;20049;-81
2022/11/21 00:06:37;;;;;;;1.75;1.00;;;;;;;;;;6205269;28;20713;-81
2022/11/21 00:09:39;;;;;;;6.30;1.48;;;;;;;;;;6209326;28;20038;-80
2022/11/21 00:12:41;;;;;;;3.63;1.13;;;;;;;;;;6217643;28;20038;-80
2022/11/21 00:15:43;;;;;;;2.70;0.98;;;;;;;;;;6208498;28;20571;-80
2022/11/21 00:18:45;;;;;;;2.47;0.85;;;;;;;;;;6208714;28;20164;-81
2022/11/21 00:21:46;;;;;;;3.30;1.50;;;;;;;;;;6208403;28;20061;-81
2022/11/21 00:24:48;;;;;;;1.88;1.00;;;;;;;;;;6213356;28;20058;-80
2022/11/21 00:27:54;;;;;;;2.53;1.35;;;;;;;;;;6215407;28;20053;-80
2022/11/21 00:30:56;;;;;;;2.72;1.10;;;;;;;;;;6220133;28;20189;-80
2022/11/21 00:33:58;;;;;;;2.05;1.50;;;;;;;;;;6218472;28;20125;-81
2022/11/21 00:36:59;;;;;;;3.65;1.23;;;;;;;;;;6226995;28;20060;-81
2022/11/21 00:40:01;;;;;;;4.18;1.08;;;;;;;;;;6200894;28;20184;-80
2022/11/21 00:43:03;;;;;;;1.45;1.15;;;;;;;;;;6224942;28;20048;-81
2022/11/21 00:46:07;;;;;;;7.05;3.15;;;;;;;;;;6220785;28;20415;-81
2022/11/21 00:49:09;;;;;;;2.22;0.85;;;;;;;;;;6217216;28;20042;-81
2022/11/21 00:52:10;;;;;;;0.65;0.65;;;;;;;;;;6236451;28;20448;-81
2022/11/21 00:55:12;;;;;;;2.08;1.00;;;;;;;;;;6212218;28;20380;-81
2022/11/21 00:58:14;;;;;;;1.23;1.00;;;;;;;;;;6221531;28;20038;-80
2022/11/21 01:01:16;;;;;;;4.47;1.00;;;;;;;;;;6210698;28;20049;-81
2022/11/21 01:04:18;;;;;;;3.08;0.82;;;;;;;;;;6217174;28;20180;-80
2022/11/21 01:07:19;;;;;;;2.05;0.93;;;;;;;;;;6219072;28;20041;-81
2022/11/21 01:10:21;;;;;;;2.08;0.57;;;;;;;;;;6217029;28;20049;-82
2022/11/21 01:13:25;;;;;;;0.75;0.68;;;;;;;;;;6208029;28;20681;-82
2022/11/21 01:16:28;;;;;;;2.97;0.93;;;;;;;;;;6212853;28;20045;-82
2022/11/21 01:19:30;;;;;;;1.08;0.63;;;;;;;;;;6211379;28;20037;-82
2022/11/21 01:22:32;;;;;;;2.63;0.90;;;;;;;;;;6195781;28;20476;-82
2022/11/21 01:25:34;;;;;;;1.15;1.00;;;;;;;;;;6212977;28;20272;-82
2022/11/21 01:28:36;;;;;;;0.93;0.77;;;;;;;;;;6208265;28;20141;-83
2022/11/21 01:31:38;;;;;;;5.03;1.00;;;;;;;;;;6218013;28;20069;-83
2022/11/21 01:34:39;;;;;;;1.55;1.10;;;;;;;;;;6210313;28;20049;-82
2022/11/21 01:37:41;;;;;;;6.65;1.70;;;;;;;;;;6216241;28;20469;-82
2022/11/21 01:40:43;;;;;;;2.35;1.50;;;;;;;;;;6221219;28;20139;-82
2022/11/21 01:43:46;;;;;;;1.95;1.75;;;;;;;;;;6208253;28;20087;-82
2022/11/21 01:46:49;;;;;;;;;;;;;;;;;;6204673;28;20077;-82
2022/11/21 01:49:52;;;;;;;4.47;2.40;;;;;;;;;;6208484;28;19921;-82
2022/11/21 01:52:53;;;;;;;2.35;1.65;;;;;;;;;;6218801;28;20060;-83
2022/11/21 01:55:55;;;;;;;7.07;2.22;;;;;;;;;;6208863;28;20333;-82
2022/11/21 01:58:59;;;;;;;7.82;2.83;;;;;;;;;;6216637;28;20533;-82
2022/11/21 02:02:05;;;;;;;6.10;2.67;;;;;;;;;;6217703;28;20049;-82
2022/11/21 02:05:10;;;;;;;4.80;1.63;;;;;;;;;;6211668;28;20049;-82
2022/11/21 02:08:19;;;;;;;3.35;1.30;;;;;;;;;;6216611;28;20065;-83
2022/11/21 02:11:30;;;;;;;3.00;1.50;;;;;;;;;;6213067;28;20060;-83
2022/11/21 02:14:32;;;;;;;3.75;1.50;;;;;;;;;;6232465;28;20048;-82
2022/11/21 02:17:37;;;;;;;1.27;0.97;;;;;;;;;;6211439;28;20192;-82
2022/11/21 02:20:44;;;;;;;2.33;1.50;;;;;;;;;;6206461;28;20124;-82
2022/11/21 02:24:16;;;;;;;4.72;1.77;;;;;;;;;;6210519;28;20045;-83
2022/11/21 02:27:17;;;;;;;3.17;1.30;;;;;;;;;;6212301;28;20087;-82
2022/11/21 02:30:19;;;;;;;1.63;1.23;;;;;;;;;;6211812;28;20129;-82
2022/11/21 02:33:21;;;;;;;3.42;1.08;;;;;;;;;;6216076;28;20099;-82
2022/11/21 02:36:44;;;;;;;4.95;1.45;;;;;;;;;;6210943;28;20049;-82
2022/11/21 02:39:46;;;;;;;1.95;1.10;;;;;;;;;;6226649;28;20895;-82
2022/11/21 02:43:08;;;;;;;1.33;0.98;;;;;;;;;;6206242;28;20494;-82
2022/11/21 02:46:10;;;;;;;1.17;0.80;;;;;;;;;;6206754;28;20490;-80
2022/11/21 02:49:12;;;;;;;3.28;0.93;;;;;;;;;;6214141;28;20050;-81
2022/11/21 02:52:14;;;;;;;1.98;1.13;;;;;;;;;;6208138;28;20588;-83
2022/11/21 02:55:15;;;;;;;2.80;1.20;;;;;;;;;;6209232;28;20045;-82
2022/11/21 02:58:18;;;;;;;2.08;0.88;;;;;;;;;;6213914;28;20038;-82
2022/11/21 03:01:20;;;;;;;2.47;1.40;;;;;;;;;;6204311;28;20076;-82
2022/11/21 03:04:21;;;;;;;2.63;1.70;;;;;;;;;;6208116;28;20464;-81
2022/11/21 03:07:23;;;;;;;2.90;1.85;;;;;;;;;;6209651;28;20085;-82
2022/11/21 03:10:25;;;;;;;4.93;1.83;;;;;;;;;;6208567;28;20520;-82
2022/11/21 03:13:27;;;;;;;4.57;2.13;;;;;;;;;;6208789;28;20068;-82
2022/11/21 03:16:28;;;;;;;4.50;2.03;;;;;;;;;;6207060;28;20104;-82
2022/11/21 03:19:30;;;;;;;5.75;2.58;;;;;;;;;;6218545;28;20069;-82
2022/11/21 03:22:34;;;;;;;5.70;2.78;;;;;;;;;;6204572;28;20182;-81
2022/11/21 03:25:36;;;;;;;4.72;2.85;;;;;;;;;;6208093;28;20050;-81
2022/11/21 03:28:37;;;;;;;6.13;2.95;;;;;;;;;;6211022;28;20060;-83
2022/11/21 03:31:39;;;;;;;7.65;3.22;;;;;;;;;;6216821;28;20049;-82
2022/11/21 03:34:41;;;;;;;8.00;2.95;;;;;;;;;;6191674;28;20231;-83
2022/11/21 03:37:43;;;;;;;6.30;3.50;;;;;;;;;;6212816;28;20049;-83
2022/11/21 03:40:44;;;;;;;7.15;3.15;;;;;;;;;;6214648;28;20103;-83
2022/11/21 03:43:46;;;;;;;6.03;3.10;;;;;;;;;;6191882;28;20060;-82
2022/11/21 03:46:48;;;;;;;6.20;2.75;;;;;;;;;;6206442;28;20069;-83
2022/11/21 03:49:53;;;;;;;7.60;2.95;;;;;;;;;;6205286;28;20053;-84
2022/11/21 03:52:55;;;;;;;3.90;2.20;;;;;;;;;;6207848;28;20183;-83
2022/11/21 03:55:56;;;;;;;8.30;3.45;;;;;;;;;;6211800;28;20072;-83
2022/11/21 03:58:58;;;;;;;8.20;3.15;;;;;;;;;;6217106;28;20365;-83
2022/11/21 04:02:00;;;;;;;4.97;3.10;;;;;;;;;;6213100;28;20123;-83
2022/11/21 04:05:02;;;;;;;7.38;2.90;;;;;;;;;;6208630;28;20050;-83
2022/11/21 04:08:04;;;;;;;4.60;2.20;;;;;;;;;;6187574;28;20123;-84
2022/11/21 04:11:06;;;;;;;3.05;1.80;;;;;;;;;;6220472;28;20064;-84
2022/11/21 04:14:08;;;;;;;5.82;2.45;;;;;;;;;;6189863;28;20497;-83
2022/11/21 04:17:09;;;;;;;3.03;2.50;;;;;;;;;;6195815;28;20100;-84
2022/11/21 04:20:11;;;;;;;3.85;2.28;;;;;;;;;;6207712;28;20034;-84
2022/11/21 04:23:13;;;;;;;3.72;1.77;;;;;;;;;;6198584;28;20057;-83
2022/11/21 04:26:15;;;;;;;4.75;2.30;;;;;;;;;;6212170;28;20104;-84
2022/11/21 04:29:17;;;;;;;3.50;2.30;;;;;;;;;;6210061;28;20354;-83
2022/11/21 04:32:18;;;;;;;6.22;3.00;;;;;;;;;;6214010;28;20056;-84
2022/11/21 04:35:22;;;;;;;5.38;2.47;;;;;;;;;;6213430;28;20130;-84
2022/11/21 04:38:23;;;;;;;3.15;2.20;;;;;;;;;;6211994;28;20721;-84
2022/11/21 04:41:28;;;;;;;4.15;2.20;;;;;;;;;;6229339;28;20053;-85
2022/11/21 04:44:30;;;;;;;3.42;2.00;;;;;;;;;;6213128;28;20045;-84
2022/11/21 04:47:31;;;;;;;5.63;2.80;;;;;;;;;;6228591;28;20362;-85
2022/11/21 04:50:33;;;;;;;9.68;3.65;;;;;;;;;;6215915;28;20045;-85
2022/11/21 04:53:35;;;;;;;4.38;2.55;;;;;;;;;;6221688;28;20037;-84
2022/11/21 04:56:43;;;;;;;7.22;2.58;;;;;;;;;;6228712;28;20065;-84
2022/11/21 04:59:45;;;;;;;7.72;3.10;;;;;;;;;;6227236;28;20042;-84
2022/11/21 05:02:46;;;;;;;6.43;2.85;;;;;;;;;;6236368;28;20091;-84
2022/11/21 05:05:48;;;;;;;6.30;2.30;;;;;;;;;;6209323;28;20050;-83
2022/11/21 05:08:50;;;;;;;3.13;2.17;;;;;;;;;;6213788;28;20053;-84
2022/11/21 05:15:15;;;;;;;4.32;1.92;;;;;;;;;;6213367;28;20057;-84
2022/11/21 05:18:24;;;;;;;5.63;2.78;;;;;;;;;;6200104;28;20805;-83
2022/11/21 05:21:26;;;;;;;6.90;3.28;;;;;;;;;;6214648;28;20368;-83
2022/11/21 05:24:27;;;;;;;6.10;4.00;;;;;;;;;;6207527;28;20092;-84
2022/11/21 05:27:30;;;;;;;10.30;4.65;;;;;;;;;;6211210;28;20053;-83
2022/11/21 05:30:31;;;;;;;8.93;4.25;;;;;;;;;;6209504;28;20045;-83
2022/11/21 05:33:33;;;;;;;11.40;6.20;;;;;;;;;;6217381;28;20045;-83
2022/11/21 05:36:35;;;;;;;14.20;4.65;;;;;;;;;;6230431;28;20045;-83
2022/11/21 05:39:37;;;;;;;9.80;4.60;;;;;;;;;;6209062;28;20498;-83
2022/11/21 05:46:01;;;;;;;14.65;5.57;;;;;;;;;;6215037;28;20282;-83
2022/11/21 05:49:03;;;;;;;12.23;4.80;;;;;;;;;;6215552;28;20073;-83
2022/11/21 05:52:04;;;;;;;12.70;5.45;;;;;;;;;;6213280;28;20046;-83
2022/11/21 05:55:07;;;;;;;12.70;5.38;;;;;;;;;;6211144;28;20061;-83
2022/11/21 05:58:09;;;;;;;14.45;5.18;;;;;;;;;;6217633;28;20048;-83
2022/11/21 06:03:25;;;;;;;11.18;4.60;;;;;;;;;;6210064;28;20420;-83
2022/11/21 06:04:34;;;;;;;9.55;4.75;;;;;;;;;;6218366;28;20100;-84
2022/11/21 06:07:36;;;;;;;9.13;4.93;;;;;;;;;;6218905;28;20316;-84
2022/11/21 06:10:38;;;;;;;11.10;5.88;;;;;;;;;;6236038;28;20140;-82
2022/11/21 06:13:41;;;;;;;10.50;5.47;;;;;;;;;;6204592;28;20071;-82
2022/11/21 06:16:43;;;;;;;9.98;3.95;;;;;;;;;;6212779;28;20053;-82
2022/11/21 06:19:44;;;;;;;12.40;4.80;;;;;;;;;;6210912;28;20890;-82
2022/11/21 06:22:46;;;;;;;10.52;5.32;;;;;;;;;;6213398;28;20044;-82
2022/11/21 06:25:55;;;;;;;11.27;4.57;;;;;;;;;;6209840;28;20133;-82
2022/11/21 06:28:57;;;;;;;12.13;4.85;;;;;;;;;;6215745;28;20251;-82
2022/11/21 06:31:59;;;;;;;11.32;5.30;;;;;;;;;;6207251;28;20049;-82
2022/11/21 06:35:01;;;;;;;13.30;5.40;;;;;;;;;;6219517;28;20143;-82
2022/11/21 06:38:03;;;;;;;9.32;4.15;;;;;;;;;;6217989;28;20049;-82
2022/11/21 06:41:20;;;;;;;11.02;5.28;;;;;;;;;;6197463;28;20240;-82
2022/11/21 06:44:22;;;;;;;7.32;4.68;;;;;;;;;;6217523;28;20053;-83
2022/11/21 06:47:24;;;;;;;13.68;4.53;;;;;;;;;;6211017;28;20513;-82
2022/11/21 06:50:30;;;;;;;8.80;4.75;;;;;;;;;;6211015;28;20068;-82
2022/11/21 06:53:35;;;;;;;9.10;4.63;;;;;;;;;;6215154;28;20536;-82
2022/11/21 06:56:37;;;;;;;8.57;4.38;;;;;;;;;;6207222;28;20084;-82
2022/11/21 06:59:38;;;;;;;8.55;5.25;;;;;;;;;;6212489;28;20112;-81
2022/11/21 07:02:40;;;;;;;12.30;4.07;;;;;;;;;;6217189;28;20518;-82
2022/11/21 07:05:42;;;;;;;15.00;5.00;;;;;;;;;;6210634;28;20046;-85
2022/11/21 07:08:43;;;;;;;12.55;4.65;;;;;;;;;;6224446;28;20065;-81
2022/11/21 07:11:45;;;;;;;9.80;4.28;;;;;;;;;;6243431;28;20346;-82
2022/11/21 07:14:46;;;;;;;8.18;4.28;;;;;;;;;;6209575;28;20056;-82
2022/11/21 07:17:48;;;;;;;10.73;5.03;;;;;;;;;;6203787;28;20090;-81
2022/11/21 07:20:50;;;;;;;11.75;5.20;;;;;;;;;;6218618;28;20164;-82
2022/11/21 07:23:52;;;;;;;11.90;5.30;;;;;;;;;;6226170;28;20049;-81
2022/11/21 07:26:53;;;;;;;8.38;4.80;;;;;;;;;;6210182;28;20152;-82
2022/11/21 07:29:57;;;;;;;11.63;6.05;;;;;;;;;;6206398;28;20046;-82
2022/11/21 07:33:01;;;;;;;11.73;5.32;;;;;;;;;;6205310;28;20041;-83
2022/11/21 07:36:03;;;;;;;13.63;4.70;;;;;;;;;;6204196;28;20397;-82
2022/11/21 07:39:05;;;;;;;10.85;5.07;;;;;;;;;;6205730;28;20049;-82
2022/11/21 07:42:07;;;;;;;13.02;5.78;;;;;;;;;;6212598;28;20099;-84
2022/11/21 07:45:11;;;;;;;9.55;4.78;;;;;;;;;;6207772;28;20053;-81
2022/11/21 07:48:13;;;;;;;9.93;5.22;;;;;;;;;;6209044;28;20049;-82
2022/11/21 07:51:14;;;;;;;10.95;5.43;;;;;;;;;;6206902;28;20105;-82
2022/11/21 07:54:16;;;;;;;11.73;6.15;;;;;;;;;;6222453;28;20057;-82
2022/11/21 07:57:18;;;;;;;16.30;5.82;;;;;;;;;;6209257;28;20042;-83
2022/11/21 08:00:19;;;;;;;12.55;5.25;;;;;;;;;;6226430;28;20180;-83
2022/11/21 08:03:22;;;;;;;13.07;4.72;;;;;;;;;;6206097;28;20139;-82
2022/11/21 08:06:26;;;;;;;12.18;4.97;;;;;;;;;;6237089;28;20049;-79
2022/11/21 08:09:28;;;;;;;11.63;5.20;;;;;;;;;;6208529;28;20061;-82
2022/11/21 08:12:31;;;;;;;14.30;4.37;;;;;;;;;;6210538;28;20706;-80
2022/11/21 08:15:34;;;;;;;8.75;4.60;;;;;;;;;;6209526;28;20447;-81
2022/11/21 08:18:36;;;;;;;13.57;5.32;;;;;;;;;;6211625;28;20509;-81
2022/11/21 08:21:41;;;;;;;11.02;5.25;;;;;;;;;;6204167;28;20711;-80
2022/11/21 08:24:42;;;;;;;13.02;5.47;;;;;;;;;;6213934;28;20076;-80
2022/11/21 08:27:44;;;;;;;11.10;5.18;;;;;;;;;;6211589;28;20128;-80
2022/11/21 08:30:46;;;;;;;16.48;8.43;;;;;;;;;;6210979;28;20042;-81
2022/11/21 08:33:48;;;;;;;22.08;11.15;;;;;;;;;;6210060;28;20109;-81
2022/11/21 08:36:49;;;;;;;12.40;5.68;;;;;;;;;;6205588;28;20761;-80
2022/11/21 08:39:51;;;;;;;12.45;4.85;;;;;;;;;;6204110;28;20113;-80
2022/11/21 08:43:01;;;;;;;8.63;4.53;;;;;;;;;;6209986;28;20572;-81
2022/11/21 08:46:02;;;;;;;9.32;4.63;;;;;;;;;;6210679;28;20041;-84
2022/11/21 08:49:05;;;;;;;7.15;3.72;;;;;;;;;;6197416;28;20099;-82
2022/11/21 08:52:06;;;;;;;6.20;3.87;;;;;;;;;;6194475;28;20069;-82
2022/11/21 08:55:08;;;;;;;7.95;3.63;;;;;;;;;;6222186;28;20121;-82
2022/11/21 08:58:10;;;;;;;8.98;4.38;;;;;;;;;;6223336;28;20049;-82
2022/11/21 09:01:12;;;;;;;11.43;4.15;;;;;;;;;;6230664;28;20046;-82
2022/11/21 09:04:14;;;;;;;11.98;5.03;;;;;;;;;;6229155;28;20054;-82
2022/11/21 09:07:15;;;;;;;9.43;3.92;;;;;;;;;;6214218;28;20053;-83
2022/11/21 09:10:17;;;;;;;7.55;3.03;;;;;;;;;;6218290;28;20145;-83
2022/11/21 09:13:19;;;;;;;5.60;3.10;;;;;;;;;;6213059;28;20063;-82
2022/11/21 09:19:41;;;;;;;8.35;3.08;;;;;;;;;;6208182;28;20529;-83
2022/11/21 09:22:43;;;;;;;5.68;2.90;;;;;;;;;;6212864;28;20046;-82
2022/11/21 09:25:45;;;;;;;5.30;2.80;;;;;;;;;;6195328;28;20132;-81
2022/11/21 09:28:47;;;;;;;9.15;2.95;;;;;;;;;;6211143;28;20049;-81
2022/11/21 09:31:49;;;;;;;9.73;3.22;;;;;;;;;;6216873;28;20049;-81
2022/11/21 09:34:51;;;;;;;10.70;3.05;;;;;;;;;;6209442;28;20037;-82
2022/11/21 09:37:52;;;;;;;7.05;3.03;;;;;;;;;;6206962;28;20050;-81
2022/11/21 09:45:25;;;;;;;9.82;3.20;;;;;;;;;;6207999;28;21401;-81
2022/11/21 09:48:57;;;;;;;3.55;2.65;;;;;;;;;;6230815;28;20050;-78
2022/11/21 09:51:59;;;;;;;7.97;2.72;;;;;;;;;;6197804;28;20526;-79
2022/11/21 09:55:06;;;;;;;7.68;3.15;;;;;;;;;;6213519;28;20033;-78
2022/11/21 09:58:27;;;;;;;9.25;3.50;;;;;;;;;;6205783;28;20045;-79
2022/11/21 10:01:30;;;;;;;7.63;3.58;;;;;;;;;;6204806;28;20056;-79
2022/11/21 10:04:32;;;;;;;6.30;2.63;;;;;;;;;;6209039;28;20046;-80
2022/11/21 10:07:36;;;;;;;7.18;2.95;;;;;;;;;;6208220;28;20133;-82
2022/11/21 10:10:52;;;;;;;4.57;2.53;;;;;;;;;;6205570;28;20528;-84
2022/11/21 10:14:22;;;;;;;3.88;2.70;;;;;;;;;;6213540;28;22000;-81
2022/11/21 10:17:36;;;;;;;5.15;2.70;;;;;;;;;;6220702;28;20056;-80
2022/11/21 10:21:07;;;;;;;3.92;2.63;;;;;;;;;;6218332;28;20057;-83
2022/11/21 10:24:30;;;;;;;10.52;2.75;;;;;;;;;;6214687;28;20110;-82
2022/11/21 10:27:40;;;;;;;3.08;1.75;;;;;;;;;;6230790;28;20253;-82
2022/11/21 10:30:44;;;;;;;3.10;1.80;;;;;;;;;;6205032;28;20474;-82
2022/11/21 10:33:46;;;;;;;;;;;;;;;;;;6210702;28;20034;-80
2022/11/21 10:36:55;;;;;;;2.97;1.92;;;;;;;;;;6212212;28;19921;-81
2022/11/21 10:40:06;;;;;;;3.60;2.10;;;;;;;;;;6235867;28;20685;-82
2022/11/21 10:46:38;;;;;;;4.05;2.60;;;;;;;;;;6213986;28;20081;-81
2022/11/21 10:49:42;;;;;;;4.75;3.15;;;;;;;;;;6211118;28;20080;-81
2022/11/21 10:52:49;;;;;;;2.83;1.80;;;;;;;;;;6207198;28;20049;-81
2022/11/21 10:56:14;;;;;;;1.40;1.10;;;;;;;;;;6216102;28;20053;-80
2022/11/21 10:59:26;;;;;;;2.55;1.75;;;;;;;;;;6203304;28;20046;-80
2022/11/21 11:02:31;;;;;;;2.53;1.17;;;;;;;;;;6208588;28;20052;-82
2022/11/21 11:05:37;;;;;;;4.93;2.08;;;;;;;;;;6205538;28;20098;-81
2022/11/21 11:08:57;;;;;;;4.15;2.20;;;;;;;;;;6230602;28;20537;-81
2022/11/21 11:16:05;;;;;;;5.55;2.38;;;;;;;;;;6211156;28;20046;-82
2022/11/21 11:19:16;;;;;;;5.55;2.38;;;;;;;;;;6213115;28;20137;-80
2022/11/21 11:22:28;;;;;;;8.73;2.13;;;;;;;;;;6207600;28;20054;-81
2022/11/21 11:25:35;;;;;;;5.30;2.17;;;;;;;;;;6213060;28;21995;-82
2022/11/21 11:28:37;;;;;;;3.03;2.08;;;;;;;;;;6215434;28;20053;-80
2022/11/21 11:31:58;;;;;;;6.18;2.08;;;;;;;;;;6202007;28;20124;-79
2022/11/21 11:35:12;;;;;;;4.22;1.80;;;;;;;;;;6195543;28;20047;-80
2022/11/21 11:38:15;;;;;;;3.63;1.88;;;;;;;;;;6210561;28;20038;-80
2022/11/21 11:48:38;;;;;;;4.82;1.85;;;;;;;;;;6206954;28;20045;-81
2022/11/21 11:52:04;;;;;;;4.22;2.42;;;;;;;;;;6205514;28;20524;-81
2022/11/21 11:55:14;;;;;;;5.55;2.90;;;;;;;;;;6203695;28;20525;-80
2022/11/21 11:58:22;;;;;;;3.72;1.95;;;;;;;;;;6208928;28;20372;-81
2022/11/21 12:01:49;;;;;;;5.93;2.17;;;;;;;;;;6209714;28;20421;-80
2022/11/21 12:05:06;;;;;;;2.33;1.58;;;;;;;;;;6229986;28;20188;-80
2022/11/21 12:08:17;;;;;;;2.70;1.33;;;;;;;;;;6215606;28;20417;-80
2022/11/21 12:12:06;;;;;;;1.33;1.23;;;;;;;;;;6213899;28;20073;-80
2022/11/21 12:19:06;;;;;;;7.50;1.88;;;;;;;;;;6215683;28;20113;-80
2022/11/21 12:22:10;;;;;;;4.13;2.40;;;;;;;;;;6210320;28;20049;-80
2022/11/21 12:25:13;;;;;;;5.05;2.20;;;;;;;;;;6219440;28;20057;-80
2022/11/21 12:28:25;;;;;;;3.83;1.65;;;;;;;;;;6221526;28;20119;-80
2022/11/21 12:31:56;;;;;;;2.70;1.60;;;;;;;;;;6208322;28;20106;-81
2022/11/21 12:35:26;;;;;;;2.03;1.20;;;;;;;;;;6208320;28;20513;-79
2022/11/21 12:39:10;;;;;;;2.80;1.50;;;;;;;;;;6215475;28;20406;-80
2022/11/21 12:42:49;;;;;;;1.83;1.23;;;;;;;;;;6206787;28;20383;-80
2022/11/21 12:45:56;;;;;;;8.45;1.38;;;;;;;;;;6210699;28;20107;-80
2022/11/21 12:56:37;;;;;;;2.15;1.67;;;;;;;;;;6214819;28;20179;-80
2022/11/21 12:59:51;;;;;;;1.52;1.30;;;;;;;;;;6215765;28;20069;-79
2022/11/21 13:03:23;;;;;;;2.17;1.85;;;;;;;;;;6240859;28;21264;-80
2022/11/21 13:06:27;;;;;;;3.15;2.47;;;;;;;;;;6206600;28;20187;-80
2022/11/21 13:09:38;;;;;;;1.58;1.00;;;;;;;;;;6215630;28;20057;-80
2022/11/21 13:12:58;;;;;;;2.75;1.67;;;;;;;;;;6208803;28;20069;-80
2022/11/21 13:16:14;;;;;;;1.95;1.27;;;;;;;;;;6244998;28;20049;-79
2022/11/21 13:19:27;;;;;;;1.38;1.27;;;;;;;;;;6215824;28;20128;-79
2022/11/21 13:22:35;;;;;;;4.68;4.22;;;;;;;;;;6214817;28;20045;-79
2022/11/21 13:25:39;;;;;;;9.00;4.47;;;;;;;;;;6231893;28;20498;-79
2022/11/21 13:28:43;;;;;;;29.00;10.70;;;;;;;;;;6208367;28;20057;-79
2022/11/21 13:31:45;;;;;;;26.05;11.68;;;;;;;;;;6211300;28;20052;-79
2022/11/21 13:34:46;;;;;;;5.32;2.15;;;;;;;;;;6211298;28;20425;-79
2022/11/21 13:37:48;;;;;;;5.03;2.85;;;;;;;;;;6210330;28;20069;-79
2022/11/21 13:44:39;;;;;;;3.33;1.80;;;;;;;;;;6207584;28;20045;-80
2022/11/21 13:47:57;;;;;;;1.95;1.77;;;;;;;;;;6207508;28;20066;-79
2022/11/21 13:51:20;;;;;;;2.67;1.83;;;;;;;;;;6200915;28;20100;-79
2022/11/21 13:54:36;;;;;;;7.15;3.58;;;;;;;;;;6211240;28;20133;-79
2022/11/21 13:58:04;;;;;;;5.82;2.83;;;;;;;;;;6208615;28;20061;-79
2022/11/21 14:01:43;;;;;;;7.78;3.63;;;;;;;;;;6209028;28;20037;-80
2022/11/21 14:05:00;;;;;;;8.73;3.95;;;;;;;;;;6210606;28;20049;-80
2022/11/21 14:08:29;;;;;;;5.75;2.78;;;;;;;;;;6209796;28;20517;-80
2022/11/21 14:11:37;;;;;;;5.82;2.42;;;;;;;;;;6224307;28;20191;-80
2022/11/21 14:15:00;;;;;;;10.65;5.35;;;;;;;;;;6205223;28;20076;-81
2022/11/21 14:18:02;;;;;;;4.68;2.60;;;;;;;;;;6205726;28;20055;-80
2022/11/21 14:21:07;;;;;;;4.53;2.45;;;;;;;;;;6214223;28;20057;-82
2022/11/21 14:24:17;;;;;;;2.90;2.08;;;;;;;;;;6207128;28;20050;-82
2022/11/21 14:27:29;;;;;;;7.00;3.25;;;;;;;;;;6214801;28;20184;-80
2022/11/21 14:30:39;;;;;;;5.97;2.55;;;;;;;;;;6207835;28;20046;-80
2022/11/21 14:33:42;;;;;;;5.40;3.17;;;;;;;;;;6223096;28;20065;-81
2022/11/21 14:36:45;;;;;;;5.57;3.17;;;;;;;;;;6200172;28;20256;-81
2022/11/21 14:39:46;;;;;;;7.20;3.63;;;;;;;;;;6205193;28;20084;-80
2022/11/21 14:42:57;;;;;;;8.40;4.38;;;;;;;;;;6197289;28;20456;-80
2022/11/21 14:45:58;;;;;;;5.85;3.17;;;;;;;;;;6203177;28;20682;-80
2022/11/21 14:49:15;;;;;;;6.10;3.10;;;;;;;;;;6195191;28;20136;-81
2022/11/21 14:52:23;;;;;;;8.25;4.47;;;;;;;;;;6202919;28;20049;-81
2022/11/21 14:55:30;;;;;;;19.42;7.43;;;;;;;;;;6199292;28;20513;-81
2022/11/21 14:58:33;;;;;;;26.35;8.65;;;;;;;;;;6195969;28;20045;-81
2022/11/21 15:01:35;;;;;;;7.38;3.80;;;;;;;;;;6189744;28;20098;-81
2022/11/21 15:04:37;;;;;;;10.00;3.67;;;;;;;;;;6201072;28;20051;-81
2022/11/21 15:07:44;;;;;;;7.60;3.20;;;;;;;;;;6198248;28;20524;-81
2022/11/21 15:10:47;;;;;;;6.20;3.00;;;;;;;;;;6188138;28;20231;-79
2022/11/21 15:13:55;;;;;;;8.38;4.03;;;;;;;;;;6197786;28;20053;-80
2022/11/21 15:17:20;;;;;;;18.90;8.18;;;;;;;;;;6191674;28;20096;-80
2022/11/21 15:20:22;;;;;;;16.08;6.72;;;;;;;;;;6203098;28;20066;-78
2022/11/21 15:23:37;;;;;;;74.22;24.40;;;;;;;;;;6199225;28;20065;-78
2022/11/21 15:26:39;;;;;;;19.75;8.15;;;;;;;;;;6201086;28;20049;-79
2022/11/21 15:29:41;;;;;;;26.45;11.98;;;;;;;;;;6192152;28;20098;-80
2022/11/21 15:33:00;;;;;;;16.58;8.15;;;;;;;;;;6202491;28;20102;-78
2022/11/21 15:36:11;;;;;;;11.93;6.82;;;;;;;;;;6207665;28;20490;-79
2022/11/21 15:39:20;;;;;;;10.07;6.30;;;;;;;;;;6204080;28;20815;-78
2022/11/21 15:42:31;;;;;;;17.65;8.02;;;;;;;;;;6211506;28;20345;-79
2022/11/21 15:45:32;;;;;;;16.48;7.07;;;;;;;;;;6204793;28;20045;-78
2022/11/21 15:48:34;;;;;;;10.40;5.82;;;;;;;;;;6212661;28;20076;-78
2022/11/21 15:51:48;;;;;;;11.02;5.15;;;;;;;;;;6206800;28;20033;-78
2022/11/21 15:55:17;;;;;;;13.48;6.35;;;;;;;;;;6206031;28;20053;-78
2022/11/21 15:58:18;;;;;;;15.52;6.20;;;;;;;;;;6243976;28;20049;-79
2022/11/21 16:01:22;;;;;;;9.75;5.03;;;;;;;;;;6208140;28;20052;-79
2022/11/21 16:04:26;;;;;;;12.05;6.40;;;;;;;;;;6193786;28;20053;-78
2022/11/21 16:07:28;;;;;;;13.57;6.70;;;;;;;;;;6231648;28;20049;-79
2022/11/21 16:10:30;;;;;;;15.07;9.07;;;;;;;;;;6223457;28;20057;-79
2022/11/21 16:13:32;;;;;;;17.60;10.48;;;;;;;;;;6230509;28;20041;-78
2022/11/21 16:16:37;;;;;;;12.73;7.93;;;;;;;;;;6215412;28;20042;-79
2022/11/21 16:19:44;;;;;;;6.75;4.65;;;;;;;;;;6216995;28;20071;-79
2022/11/21 16:22:46;;;;;;;24.10;14.15;;;;;;;;;;6213577;28;20045;-80
2022/11/21 16:25:54;;;;;;;12.65;9.40;;;;;;;;;;6207714;28;20053;-78
2022/11/21 16:28:57;;;;;;;6.80;4.50;;;;;;;;;;6205669;28;20437;-79
2022/11/21 16:31:59;;;;;;;9.95;3.88;;;;;;;;;;6192113;28;20049;-79
2022/11/21 16:35:01;;;;;;;7.78;5.55;;;;;;;;;;6211666;28;20204;-78
2022/11/21 16:38:10;;;;;;;17.75;9.30;;;;;;;;;;6214861;28;20044;-79
2022/11/21 16:41:12;;;;;;;11.18;7.47;;;;;;;;;;6210328;28;20038;-80
2022/11/21 16:44:15;;;;;;;10.90;6.63;;;;;;;;;;6212014;28;20050;-79
2022/11/21 16:47:17;;;;;;;8.00;4.20;;;;;;;;;;6212892;28;20050;-79
2022/11/21 16:50:19;;;;;;;11.50;5.38;;;;;;;;;;6213345;28;21071;-79
2022/11/21 16:53:20;;;;;;;16.00;6.70;;;;;;;;;;6203227;28;20117;-79
2022/11/21 16:56:22;;;;;;;13.48;6.35;;;;;;;;;;6207132;28;20539;-79
2022/11/21 16:59:24;;;;;;;13.35;5.57;;;;;;;;;;6218901;28;20086;-79
2022/11/21 17:02:26;;;;;;;7.30;5.32;;;;;;;;;;6239379;28;20060;-80
2022/11/21 17:05:28;;;;;;;9.82;5.57;;;;;;;;;;6208257;28;20041;-79
2022/11/21 17:08:30;;;;;;;14.00;5.55;;;;;;;;;;6217398;28;20772;-79
2022/11/21 17:11:32;;;;;;;17.27;7.30;;;;;;;;;;6207353;28;20568;-79
2022/11/21 17:14:34;;;;;;;12.70;7.57;;;;;;;;;;6207421;28;20091;-80
2022/11/21 17:17:36;;;;;;;14.43;7.88;;;;;;;;;;6220510;28;20417;-79
2022/11/21 17:20:38;;;;;;;15.65;9.05;;;;;;;;;;6209308;28;20065;-79
2022/11/21 17:23:42;;;;;;;15.15;8.38;;;;;;;;;;6208161;28;20100;-79
2022/11/21 17:26:44;;;;;;;15.35;6.82;;;;;;;;;;6197211;28;20057;-79
2022/11/21 17:29:46;;;;;;;15.73;5.93;;;;;;;;;;6231282;28;20125;-80
2022/11/21 17:32:48;;;;;;;14.88;6.57;;;;;;;;;;6207032;28;20429;-79
2022/11/21 17:35:50;;;;;;;15.60;7.50;;;;;;;;;;6229338;28;20073;-80
2022/11/21 17:38:53;;;;;;;13.23;8.05;;;;;;;;;;6213772;28;20050;-80
2022/11/21 17:41:55;;;;;;;10.80;5.13;;;;;;;;;;6215633;28;20057;-79
2022/11/21 17:44:57;;;;;;;9.88;4.65;;;;;;;;;;6215749;28;20420;-79
2022/11/21 17:47:58;;;;;;;11.65;4.85;;;;;;;;;;6212841;28;20115;-79
2022/11/21 17:51:04;;;;;;;8.27;4.63;;;;;;;;;;6224707;28;20101;-79
2022/11/21 17:54:10;;;;;;;15.30;7.43;;;;;;;;;;6218631;28;20053;-79
2022/11/21 17:57:12;;;;;;;10.55;5.88;;;;;;;;;;6218236;28;20083;-79
2022/11/21 18:00:14;;;;;;;13.00;6.93;;;;;;;;;;6213093;28;20045;-79
2022/11/21 18:03:16;;;;;;;14.65;7.15;;;;;;;;;;6207238;28;20240;-78
2022/11/21 18:06:18;;;;;;;12.40;6.38;;;;;;;;;;6210601;28;20050;-81
2022/11/21 18:09:19;;;;;;;42.95;20.60;;;;;;;;;;6211205;28;20132;-78
2022/11/21 18:12:21;;;;;;;16.23;7.47;;;;;;;;;;6212599;28;20157;-79
2022/11/21 18:15:23;;;;;;;15.55;7.57;;;;;;;;;;6209430;28;20434;-80
2022/11/21 18:18:24;;;;;;;14.95;7.28;;;;;;;;;;6211057;28;20054;-81
2022/11/21 18:21:30;;;;;;;15.13;7.38;;;;;;;;;;6208025;28;20053;-80
2022/11/21 18:24:31;;;;;;;19.67;10.20;;;;;;;;;;6178890;28;20045;-80
2022/11/21 18:27:33;;;;;;;17.42;7.93;;;;;;;;;;6197764;28;20453;-81
2022/11/21 18:30:35;;;;;;;18.35;8.88;;;;;;;;;;6199904;28;20053;-80
2022/11/21 18:33:37;;;;;;;23.77;14.18;;;;;;;;;;6209279;28;20734;-81
2022/11/21 18:36:39;;;;;;;17.50;6.00;;;;;;;;;;6202868;28;22357;-80
2022/11/21 18:39:41;;;;;;;11.25;6.13;;;;;;;;;;6210798;28;20761;-80
2022/11/21 18:42:43;;;;;;;10.02;5.10;;;;;;;;;;6223097;28;20655;-80
2022/11/21 18:45:45;;;;;;;21.08;9.45;;;;;;;;;;6200465;28;20049;-80
2022/11/21 18:48:49;;;;;;;10.80;5.57;;;;;;;;;;6200432;28;20049;-81
2022/11/21 18:52:11;;;;;;;14.00;7.28;;;;;;;;;;6176547;28;20119;-80
2022/11/21 18:55:13;;;;;;;16.90;6.88;;;;;;;;;;6196919;28;20769;-80
2022/11/21 18:58:15;;;;;;;13.70;4.68;;;;;;;;;;6183218;28;20049;-81
2022/11/21 19:01:21;;;;;;;10.10;4.10;;;;;;;;;;6199547;28;20137;-80
2022/11/21 19:04:24;;;;;;;13.25;6.20;;;;;;;;;;6195647;28;20130;-81
2022/11/21 19:07:26;;;;;;;8.55;3.97;;;;;;;;;;6197907;28;20160;-81
2022/11/21 19:10:28;;;;;;;10.93;5.50;;;;;;;;;;6201280;28;20081;-81